Time;durP1;ratioP1;P1;durP2;ratioP2;P2;SDS_P1;SDS_P2;PMS_P1;PMS_P2;Temp;Humidity;BMP_temperature;BMP_pressure;BME280_temperature;BME280_humidity;BME280_pressure;Samples;Min_cycle;Max_cycle;Signal;HPM_P1;HPM_P2
2021/12/02 00:02:06;;;;;;;0.37;0.37;;;;;;;;;;1838482;77;26257;-35
2021/12/02 00:04:33;;;;;;;0.25;0.25;;;;;;;;;;1836885;76;26305;-35
2021/12/02 00:07:01;;;;;;;0.20;0.20;;;;;;;;;;1835966;77;26332;-35
2021/12/02 00:09:29;;;;;;;0.70;0.30;;;;;;;;;;1836621;77;27512;-35
2021/12/02 00:11:57;;;;;;;0.30;0.30;;;;;;;;;;1846983;77;26880;-35
2021/12/02 00:14:26;;;;;;;0.30;0.30;;;;;;;;;;1845272;76;26351;-35
2021/12/02 00:22:09;;;;;;;0.20;0.20;;;;;;;;;;1854068;75;26785;-35
2021/12/02 00:24:38;;;;;;;0.30;0.30;;;;;;;;;;1859379;75;26784;-35
2021/12/02 00:27:07;;;;;;;0.30;0.30;;;;;;;;;;1851649;75;26268;-35
2021/12/02 00:29:36;;;;;;;0.40;0.40;;;;;;;;;;1853803;77;26941;-35
2021/12/02 00:32:04;;;;;;;0.30;0.30;;;;;;;;;;1857321;76;26339;-35
2021/12/02 00:34:32;;;;;;;0.23;0.23;;;;;;;;;;1853701;75;26319;-35
2021/12/02 00:37:01;;;;;;;0.20;0.20;;;;;;;;;;1860174;75;26270;-35
2021/12/02 00:39:29;;;;;;;0.25;0.25;;;;;;;;;;1856409;75;26253;-36
2021/12/02 00:41:57;;;;;;;0.30;0.30;;;;;;;;;;1861860;76;26289;-35
2021/12/02 00:44:24;;;;;;;0.30;0.30;;;;;;;;;;1859086;76;26280;-35
2021/12/02 00:46:51;;;;;;;0.20;0.20;;;;;;;;;;1858079;77;26340;-35
2021/12/02 00:49:20;;;;;;;0.30;0.30;;;;;;;;;;1861136;75;26318;-36
2021/12/02 00:51:49;;;;;;;0.40;0.40;;;;;;;;;;1862861;77;26278;-35
2021/12/02 00:54:18;;;;;;;0.30;0.30;;;;;;;;;;1860722;76;26261;-35
2021/12/02 00:56:45;;;;;;;0.65;0.30;;;;;;;;;;1856569;75;26747;-35
2021/12/02 00:59:12;;;;;;;0.60;0.33;;;;;;;;;;1858038;77;26363;-35
2021/12/02 01:01:40;;;;;;;0.40;0.40;;;;;;;;;;1847030;77;26751;-35
2021/12/02 01:04:08;;;;;;;1.02;0.20;;;;;;;;;;1856124;75;26351;-35
2021/12/02 01:06:36;;;;;;;0.20;0.20;;;;;;;;;;1846398;75;26761;-35
2021/12/02 01:09:05;;;;;;;0.10;0.10;;;;;;;;;;1858272;77;26268;-35
2021/12/02 01:11:32;;;;;;;0.35;0.20;;;;;;;;;;1861794;76;26244;-35
2021/12/02 01:14:00;;;;;;;0.20;0.20;;;;;;;;;;1846772;76;26653;-36
2021/12/02 01:16:27;;;;;;;0.33;0.33;;;;;;;;;;1846387;77;26271;-35
2021/12/02 01:18:55;;;;;;;0.10;0.10;;;;;;;;;;1861247;75;26575;-35
2021/12/02 01:21:24;;;;;;;0.30;0.20;;;;;;;;;;1860679;75;26218;-35
2021/12/02 01:23:53;;;;;;;0.30;0.30;;;;;;;;;;1847889;76;26466;-35
2021/12/02 01:26:21;;;;;;;0.25;0.25;;;;;;;;;;1840694;77;26595;-35
2021/12/02 01:28:50;;;;;;;0.42;0.30;;;;;;;;;;1842063;76;26278;-35
2021/12/02 01:31:17;;;;;;;0.30;0.30;;;;;;;;;;1845152;76;26264;-38
2021/12/02 01:33:46;;;;;;;0.55;0.30;;;;;;;;;;1844256;76;26274;-35
2021/12/02 01:36:14;;;;;;;0.35;0.25;;;;;;;;;;1843455;76;26331;-35
2021/12/02 01:38:42;;;;;;;0.30;0.20;;;;;;;;;;1843132;76;26261;-35
2021/12/02 01:41:09;;;;;;;0.10;0.10;;;;;;;;;;1844865;77;26293;-35
2021/12/02 01:43:47;;;;;;;0.10;0.10;;;;;;;;;;1842897;76;26280;-36
2021/12/02 01:46:16;;;;;;;0.10;0.10;;;;;;;;;;1837702;77;26780;-35
2021/12/02 01:48:45;;;;;;;0.85;0.20;;;;;;;;;;1843463;77;26233;-35
2021/12/02 01:51:13;;;;;;;0.15;0.15;;;;;;;;;;1844516;76;26265;-35
2021/12/02 01:53:41;;;;;;;0.10;0.10;;;;;;;;;;1835422;76;26805;-35
2021/12/02 01:56:10;;;;;;;0.10;0.10;;;;;;;;;;1831247;77;26355;-35
2021/12/02 01:58:42;;;;;;;0.10;0.10;;;;;;;;;;1840054;76;26273;-35
2021/12/02 02:01:11;;;;;;;0.20;0.20;;;;;;;;;;1840818;76;26678;-35
2021/12/02 02:03:39;;;;;;;0.20;0.20;;;;;;;;;;1838616;77;26246;-35
2021/12/02 02:06:08;;;;;;;0.30;0.10;;;;;;;;;;1847099;76;26226;-35
2021/12/02 02:08:36;;;;;;;0.20;0.20;;;;;;;;;;1845167;77;26277;-35
2021/12/02 02:11:04;;;;;;;0.10;0.10;;;;;;;;;;1845476;77;26290;-35
2021/12/02 02:13:31;;;;;;;0.10;0.10;;;;;;;;;;1836691;77;26332;-35
2021/12/02 02:15:58;;;;;;;0.10;0.10;;;;;;;;;;1840796;76;26199;-35
2021/12/02 02:18:26;;;;;;;0.20;0.20;;;;;;;;;;1829850;77;26537;-35
2021/12/02 02:21:06;;;;;;;0.20;0.20;;;;;;;;;;1846215;76;26952;-35
2021/12/02 02:23:35;;;;;;;0.23;0.20;;;;;;;;;;1846647;77;26297;-35
2021/12/02 02:26:02;;;;;;;0.20;0.20;;;;;;;;;;1837339;76;26378;-35
2021/12/02 02:28:30;;;;;;;1.75;0.30;;;;;;;;;;1835543;77;26856;-35
2021/12/02 02:30:58;;;;;;;1.12;0.40;;;;;;;;;;1843571;76;26324;-35
2021/12/02 02:33:33;;;;;;;0.20;0.20;;;;;;;;;;1834127;77;26265;-35
2021/12/02 02:35:54;;;;;;;0.10;0.10;;;;;;;;;;1833640;76;26217;-35
2021/12/02 02:38:23;;;;;;;1.02;0.10;;;;;;;;;;1844380;77;26713;-35
2021/12/02 02:40:50;;;;;;;0.20;0.20;;;;;;;;;;1846410;76;25673;-35
2021/12/02 02:43:23;;;;;;;0.13;0.10;;;;;;;;;;1843367;76;26345;-35
2021/12/02 02:45:49;;;;;;;0.10;0.10;;;;;;;;;;1839463;77;26285;-35
2021/12/02 02:48:16;;;;;;;0.10;0.10;;;;;;;;;;1838974;76;26313;-35
2021/12/02 02:50:44;;;;;;;0.20;0.20;;;;;;;;;;1846214;77;26764;-35
2021/12/02 02:53:16;;;;;;;0.10;0.10;;;;;;;;;;1847998;76;26313;-35
2021/12/02 02:55:44;;;;;;;0.30;0.30;;;;;;;;;;1844944;76;26207;-35
2021/12/02 02:58:23;;;;;;;0.10;0.10;;;;;;;;;;1833452;77;26354;-35
2021/12/02 03:00:51;;;;;;;0.10;0.10;;;;;;;;;;1835939;77;26213;-35
2021/12/02 03:06:19;;;;;;;0.20;0.20;;;;;;;;;;1836670;76;26365;-35
2021/12/02 03:08:35;;;;;;;0.20;0.20;;;;;;;;;;1828978;77;26770;-35
2021/12/02 03:10:57;;;;;;;0.10;0.10;;;;;;;;;;1830278;76;26315;-35
2021/12/02 03:13:37;;;;;;;0.20;0.20;;;;;;;;;;1841147;76;26327;-35
2021/12/02 03:18:41;;;;;;;0.10;0.10;;;;;;;;;;1835106;76;26711;-35
2021/12/02 03:21:21;;;;;;;0.33;0.20;;;;;;;;;;1827135;76;26366;-35
2021/12/02 03:23:50;;;;;;;0.10;0.10;;;;;;;;;;1836173;77;27151;-35
2021/12/02 03:26:18;;;;;;;0.47;0.10;;;;;;;;;;1847191;77;26289;-35
2021/12/02 03:28:47;;;;;;;0.08;0.08;;;;;;;;;;1847674;77;26277;-35
2021/12/02 03:31:14;;;;;;;0.10;0.10;;;;;;;;;;1843776;77;27517;-35
2021/12/02 03:33:42;;;;;;;0.65;0.17;;;;;;;;;;1845952;77;26303;-35
2021/12/02 03:36:09;;;;;;;0.10;0.10;;;;;;;;;;1842780;76;26343;-35
2021/12/02 03:38:37;;;;;;;0.10;0.10;;;;;;;;;;1846962;77;26246;-35
2021/12/02 03:41:04;;;;;;;0.20;0.20;;;;;;;;;;1831309;77;26263;-35
2021/12/02 03:43:36;;;;;;;0.00;0.00;;;;;;;;;;1843100;76;26915;-35
2021/12/02 03:46:03;;;;;;;0.10;0.10;;;;;;;;;;1836010;76;26716;-35
2021/12/02 03:48:31;;;;;;;0.17;0.17;;;;;;;;;;1839368;76;26246;-35
2021/12/02 03:50:58;;;;;;;0.10;0.10;;;;;;;;;;1846492;77;26379;-35
2021/12/02 03:53:25;;;;;;;0.15;0.15;;;;;;;;;;1827862;76;26265;-35
2021/12/02 03:55:53;;;;;;;0.20;0.20;;;;;;;;;;1839044;76;26261;-35
2021/12/02 03:58:20;;;;;;;0.10;0.10;;;;;;;;;;1846092;76;26273;-35
2021/12/02 04:00:47;;;;;;;0.30;0.08;;;;;;;;;;1838077;77;26288;-35
2021/12/02 04:03:15;;;;;;;0.10;0.10;;;;;;;;;;1835917;77;26285;-35
2021/12/02 04:05:42;;;;;;;0.10;0.10;;;;;;;;;;1834047;77;26319;-35
2021/12/02 04:08:11;;;;;;;0.10;0.10;;;;;;;;;;1831464;76;26323;-35
2021/12/02 04:10:40;;;;;;;0.20;0.20;;;;;;;;;;1837009;76;26749;-35
2021/12/02 04:13:16;;;;;;;0.10;0.10;;;;;;;;;;1833721;76;26285;-35
2021/12/02 04:15:40;;;;;;;0.30;0.20;;;;;;;;;;1842844;76;26378;-35
2021/12/02 04:18:06;;;;;;;0.10;0.10;;;;;;;;;;1836910;77;26330;-35
2021/12/02 04:20:36;;;;;;;0.20;0.20;;;;;;;;;;1830904;76;27671;-35
2021/12/02 04:23:04;;;;;;;0.10;0.10;;;;;;;;;;1839943;77;26328;-36
2021/12/02 04:25:31;;;;;;;0.23;0.23;;;;;;;;;;1852676;77;26324;-35
2021/12/02 04:27:59;;;;;;;0.10;0.10;;;;;;;;;;1862221;77;26260;-35
2021/12/02 04:30:27;;;;;;;0.10;0.10;;;;;;;;;;1860617;77;26240;-35
2021/12/02 04:32:55;;;;;;;0.10;0.10;;;;;;;;;;1856394;77;26249;-35
2021/12/02 04:35:22;;;;;;;0.33;0.10;;;;;;;;;;1861463;75;26701;-35
2021/12/02 04:37:54;;;;;;;0.10;0.10;;;;;;;;;;1828928;77;26324;-35
2021/12/02 04:40:21;;;;;;;0.47;0.10;;;;;;;;;;1795387;79;26747;-35
2021/12/02 04:42:49;;;;;;;1.95;0.15;;;;;;;;;;1790636;79;26809;-35
2021/12/02 04:45:16;;;;;;;0.20;0.20;;;;;;;;;;1795992;79;26740;-35
2021/12/02 04:47:44;;;;;;;0.47;0.17;;;;;;;;;;1798004;79;26711;-35
2021/12/02 04:50:11;;;;;;;0.10;0.10;;;;;;;;;;1798943;79;26299;-35
2021/12/02 04:52:39;;;;;;;0.20;0.20;;;;;;;;;;1801789;79;26283;-35
2021/12/02 04:55:07;;;;;;;0.10;0.10;;;;;;;;;;1798360;79;26364;-35
2021/12/02 04:57:35;;;;;;;0.53;0.10;;;;;;;;;;1795933;79;26805;-35
2021/12/02 05:00:03;;;;;;;0.62;0.20;;;;;;;;;;1802180;79;26275;-35
2021/12/02 05:02:31;;;;;;;0.50;0.15;;;;;;;;;;1793939;79;26861;-35
2021/12/02 05:04:58;;;;;;;0.25;0.25;;;;;;;;;;1792426;79;26314;-35
2021/12/02 05:07:25;;;;;;;0.17;0.17;;;;;;;;;;1804377;79;26760;-35
2021/12/02 05:09:52;;;;;;;0.10;0.10;;;;;;;;;;1800925;79;26929;-35
2021/12/02 05:12:21;;;;;;;0.65;0.20;;;;;;;;;;1796370;79;26727;-35
2021/12/02 05:14:48;;;;;;;0.20;0.20;;;;;;;;;;1792042;79;26787;-35
2021/12/02 05:17:16;;;;;;;0.10;0.10;;;;;;;;;;1796338;79;26276;-35
2021/12/02 05:19:43;;;;;;;1.37;0.30;;;;;;;;;;1806487;79;26344;-35
2021/12/02 05:22:11;;;;;;;0.20;0.20;;;;;;;;;;1805659;79;26295;-35
2021/12/02 05:24:38;;;;;;;2.12;0.20;;;;;;;;;;1804598;79;26303;-35
2021/12/02 05:27:06;;;;;;;0.33;0.17;;;;;;;;;;1797212;79;26338;-35
2021/12/02 05:29:33;;;;;;;1.27;0.20;;;;;;;;;;1787133;79;26814;-35
2021/12/02 05:32:01;;;;;;;1.35;0.23;;;;;;;;;;1793207;79;26330;-35
2021/12/02 05:34:28;;;;;;;3.60;0.55;;;;;;;;;;1799237;79;26260;-35
2021/12/02 05:36:55;;;;;;;0.10;0.10;;;;;;;;;;1792491;79;26325;-35
2021/12/02 05:39:22;;;;;;;1.35;0.20;;;;;;;;;;1802155;79;26354;-35
2021/12/02 05:41:53;;;;;;;0.57;0.20;;;;;;;;;;1794598;79;26287;-35
2021/12/02 05:44:19;;;;;;;3.15;0.30;;;;;;;;;;1795105;79;26291;-35
2021/12/02 05:46:46;;;;;;;2.42;0.40;;;;;;;;;;1795165;79;27828;-35
2021/12/02 05:49:13;;;;;;;0.50;0.20;;;;;;;;;;1800120;79;26287;-35
2021/12/02 05:51:42;;;;;;;0.88;0.45;;;;;;;;;;1797273;79;26777;-35
2021/12/02 05:54:10;;;;;;;0.30;0.20;;;;;;;;;;1798932;78;26381;-35
2021/12/02 05:56:37;;;;;;;1.65;0.30;;;;;;;;;;1803454;79;26283;-35
2021/12/02 05:59:05;;;;;;;1.55;0.30;;;;;;;;;;1798289;79;26243;-36
2021/12/02 06:01:32;;;;;;;3.02;0.57;;;;;;;;;;1803708;79;26292;-35
2021/12/02 06:03:59;;;;;;;2.27;0.40;;;;;;;;;;1809889;79;26747;-35
2021/12/02 06:06:27;;;;;;;2.37;0.60;;;;;;;;;;1802065;79;26295;-36
2021/12/02 06:08:54;;;;;;;1.87;0.50;;;;;;;;;;1807561;79;26268;-36
2021/12/02 06:11:23;;;;;;;3.33;0.40;;;;;;;;;;1797819;79;26296;-35
2021/12/02 06:13:50;;;;;;;2.08;0.30;;;;;;;;;;1796010;79;26380;-37
2021/12/02 06:16:17;;;;;;;1.27;0.60;;;;;;;;;;1791611;79;26720;-36
2021/12/02 06:18:45;;;;;;;2.25;0.70;;;;;;;;;;1797004;79;26717;-35
2021/12/02 06:21:12;;;;;;;6.70;0.50;;;;;;;;;;1793240;79;26439;-35
2021/12/02 06:23:41;;;;;;;0.75;0.45;;;;;;;;;;1790875;79;26373;-37
2021/12/02 06:26:09;;;;;;;2.22;0.40;;;;;;;;;;1791766;79;26696;-35
2021/12/02 06:28:37;;;;;;;0.88;0.50;;;;;;;;;;1792815;79;26339;-37
2021/12/02 06:31:06;;;;;;;2.83;0.40;;;;;;;;;;1805841;79;27407;-35
2021/12/02 06:33:34;;;;;;;0.70;0.30;;;;;;;;;;1799860;79;27614;-35
2021/12/02 06:36:01;;;;;;;1.67;0.42;;;;;;;;;;1802735;79;26290;-36
2021/12/02 06:38:28;;;;;;;2.33;0.47;;;;;;;;;;1792949;79;26288;-35
2021/12/02 06:40:56;;;;;;;1.45;0.40;;;;;;;;;;1800881;79;26275;-36
2021/12/02 06:43:23;;;;;;;0.42;0.20;;;;;;;;;;1799727;79;26334;-35
2021/12/02 06:45:50;;;;;;;0.45;0.37;;;;;;;;;;1800030;79;26323;-35
2021/12/02 06:48:18;;;;;;;1.22;0.42;;;;;;;;;;1800363;79;26809;-35
2021/12/02 06:50:45;;;;;;;3.02;0.53;;;;;;;;;;1795185;79;26289;-36
2021/12/02 06:53:16;;;;;;;1.65;0.40;;;;;;;;;;1800538;79;26293;-36
2021/12/02 06:55:41;;;;;;;1.00;0.50;;;;;;;;;;1799325;79;26296;-35
2021/12/02 06:58:09;;;;;;;0.75;0.57;;;;;;;;;;1804794;79;26329;-35
2021/12/02 07:00:36;;;;;;;1.07;0.53;;;;;;;;;;1792508;79;27383;-35
2021/12/02 07:03:04;;;;;;;2.70;0.70;;;;;;;;;;1792564;79;26270;-36
2021/12/02 07:05:32;;;;;;;1.80;0.70;;;;;;;;;;1807830;79;26782;-35
2021/12/02 07:08:01;;;;;;;1.02;0.72;;;;;;;;;;1806102;79;26786;-36
2021/12/02 07:10:31;;;;;;;3.87;0.60;;;;;;;;;;1799686;79;26303;-36
2021/12/02 07:12:58;;;;;;;0.98;0.60;;;;;;;;;;1807761;79;26875;-35
2021/12/02 07:15:31;;;;;;;1.35;0.42;;;;;;;;;;1805076;79;26412;-35
2021/12/02 07:18:00;;;;;;;1.20;0.70;;;;;;;;;;1801043;79;26319;-36
2021/12/02 07:20:29;;;;;;;1.70;0.60;;;;;;;;;;1800690;79;26288;-36
2021/12/02 07:22:58;;;;;;;1.50;0.62;;;;;;;;;;1801653;79;26709;-35
2021/12/02 07:25:25;;;;;;;1.10;0.50;;;;;;;;;;1795307;79;26436;-36
2021/12/02 07:27:52;;;;;;;2.45;0.80;;;;;;;;;;1790677;79;26323;-36
2021/12/02 07:30:20;;;;;;;0.60;0.60;;;;;;;;;;1793219;79;26308;-36
2021/12/02 07:32:48;;;;;;;0.60;0.60;;;;;;;;;;1794747;79;26749;-35
2021/12/02 07:35:16;;;;;;;0.60;0.60;;;;;;;;;;1791389;79;26732;-36
2021/12/02 07:37:45;;;;;;;0.50;0.50;;;;;;;;;;1792727;79;26311;-36
2021/12/02 07:40:13;;;;;;;2.12;0.68;;;;;;;;;;1786361;79;26296;-36
2021/12/02 07:42:41;;;;;;;0.88;0.88;;;;;;;;;;1845746;76;26689;-35
2021/12/02 07:45:09;;;;;;;0.50;0.50;;;;;;;;;;1841563;76;26254;-36
2021/12/02 07:47:38;;;;;;;0.62;0.55;;;;;;;;;;1844584;77;26624;-36
2021/12/02 07:50:06;;;;;;;0.90;0.62;;;;;;;;;;1848359;77;26320;-35
2021/12/02 07:52:35;;;;;;;0.75;0.60;;;;;;;;;;1847866;76;27307;-35
2021/12/02 07:55:05;;;;;;;0.98;0.50;;;;;;;;;;1844924;76;26264;-35
2021/12/02 07:57:34;;;;;;;1.17;0.47;;;;;;;;;;1823193;76;26279;-36
2021/12/02 08:00:02;;;;;;;0.50;0.50;;;;;;;;;;1840095;76;26206;-35
2021/12/02 08:02:33;;;;;;;0.35;0.35;;;;;;;;;;1836669;77;27612;-33
2021/12/02 08:04:59;;;;;;;0.47;0.40;;;;;;;;;;1842073;77;26297;-33
2021/12/02 08:07:27;;;;;;;0.30;0.30;;;;;;;;;;1845775;77;26360;-34
2021/12/02 08:09:54;;;;;;;1.17;0.30;;;;;;;;;;1842396;76;26282;-34
2021/12/02 08:12:22;;;;;;;1.65;0.30;;;;;;;;;;1843935;77;26344;-34
2021/12/02 08:14:50;;;;;;;0.93;0.60;;;;;;;;;;1836473;76;26383;-34
2021/12/02 08:17:18;;;;;;;0.30;0.30;;;;;;;;;;1844331;77;26285;-34
2021/12/02 08:19:45;;;;;;;0.50;0.50;;;;;;;;;;1840094;76;27608;-34
2021/12/02 08:22:12;;;;;;;0.30;0.30;;;;;;;;;;1841026;76;26260;-34
2021/12/02 08:24:40;;;;;;;0.72;0.30;;;;;;;;;;1833998;76;26996;-34
2021/12/02 08:27:07;;;;;;;0.20;0.20;;;;;;;;;;1854505;75;26889;-34
2021/12/02 08:29:34;;;;;;;1.05;0.47;;;;;;;;;;1849607;75;26249;-33
2021/12/02 08:32:02;;;;;;;0.70;0.33;;;;;;;;;;1846447;75;26740;-34
2021/12/02 08:34:30;;;;;;;0.30;0.20;;;;;;;;;;1852133;75;26292;-33
2021/12/02 08:36:57;;;;;;;0.37;0.37;;;;;;;;;;1862752;75;26193;-33
2021/12/02 08:39:27;;;;;;;0.20;0.20;;;;;;;;;;1855459;75;26783;-33
2021/12/02 08:41:55;;;;;;;0.37;0.37;;;;;;;;;;1858089;75;26325;-33
2021/12/02 08:44:24;;;;;;;2.27;0.45;;;;;;;;;;1859497;75;26293;-36
2021/12/02 08:46:53;;;;;;;0.70;0.60;;;;;;;;;;1858981;77;26878;-38
2021/12/02 08:49:21;;;;;;;0.50;0.50;;;;;;;;;;1853168;75;26748;-37
2021/12/02 08:51:49;;;;;;;2.17;0.40;;;;;;;;;;1858919;77;26349;-38
2021/12/02 08:54:16;;;;;;;0.37;0.37;;;;;;;;;;1858140;75;26253;-37
2021/12/02 08:56:44;;;;;;;0.30;0.30;;;;;;;;;;1862635;75;26728;-38
2021/12/02 08:59:11;;;;;;;0.25;0.25;;;;;;;;;;1848820;77;26261;-37
2021/12/02 09:01:38;;;;;;;2.62;0.50;;;;;;;;;;1858093;75;26300;-38
2021/12/02 09:04:05;;;;;;;0.85;0.65;;;;;;;;;;1863067;77;27425;-38
2021/12/02 09:06:33;;;;;;;0.88;0.35;;;;;;;;;;1861167;77;26953;-38
2021/12/02 09:09:01;;;;;;;0.40;0.40;;;;;;;;;;1854928;76;26274;-37
2021/12/02 09:11:30;;;;;;;0.30;0.30;;;;;;;;;;1860209;76;26264;-37
2021/12/02 09:13:58;;;;;;;0.47;0.47;;;;;;;;;;1860122;77;26300;-38
2021/12/02 09:16:26;;;;;;;2.52;0.40;;;;;;;;;;1854073;75;26289;-38
2021/12/02 09:18:54;;;;;;;0.30;0.30;;;;;;;;;;1858460;75;26644;-38
2021/12/02 09:21:21;;;;;;;2.05;0.30;;;;;;;;;;1850869;75;26280;-37
2021/12/02 09:23:49;;;;;;;0.55;0.40;;;;;;;;;;1853967;75;26708;-37
2021/12/02 09:26:16;;;;;;;1.10;0.20;;;;;;;;;;1860684;75;26264;-36
2021/12/02 09:28:52;;;;;;;0.50;0.50;;;;;;;;;;1845290;77;26322;-39
2021/12/02 09:31:13;;;;;;;0.53;0.30;;;;;;;;;;1851052;75;26363;-38
2021/12/02 09:33:40;;;;;;;0.40;0.35;;;;;;;;;;1848139;77;26650;-38
2021/12/02 09:36:07;;;;;;;0.50;0.40;;;;;;;;;;1860348;75;26328;-39
2021/12/02 09:38:35;;;;;;;0.85;0.30;;;;;;;;;;1858398;75;26273;-38
2021/12/02 09:41:03;;;;;;;0.93;0.47;;;;;;;;;;1857778;77;26238;-38
2021/12/02 09:43:31;;;;;;;1.10;0.40;;;;;;;;;;1857065;75;28134;-35
2021/12/02 09:45:58;;;;;;;0.20;0.20;;;;;;;;;;1851931;77;26315;-35
2021/12/02 09:48:27;;;;;;;0.30;0.30;;;;;;;;;;1862139;75;26281;-34
2021/12/02 09:51:03;;;;;;;0.20;0.20;;;;;;;;;;1849640;75;26246;-38
2021/12/02 09:53:26;;;;;;;1.20;0.30;;;;;;;;;;1855751;75;26362;-35
2021/12/02 09:56:02;;;;;;;0.30;0.30;;;;;;;;;;1860674;76;26402;-36
2021/12/02 09:58:26;;;;;;;0.20;0.20;;;;;;;;;;1854810;75;26257;-35
2021/12/02 10:01:07;;;;;;;0.33;0.30;;;;;;;;;;1856968;75;27408;-34
2021/12/02 10:03:34;;;;;;;0.30;0.30;;;;;;;;;;1857364;77;26361;-37
2021/12/02 10:06:05;;;;;;;0.10;0.10;;;;;;;;;;1856931;75;26257;-35
2021/12/02 10:08:37;;;;;;;0.10;0.10;;;;;;;;;;1860708;75;26281;-34
2021/12/02 10:11:06;;;;;;;0.20;0.20;;;;;;;;;;1861495;75;26308;-35
2021/12/02 10:13:38;;;;;;;0.30;0.30;;;;;;;;;;1861763;77;26378;-35
2021/12/02 10:16:03;;;;;;;0.17;0.13;;;;;;;;;;1859495;77;26265;-35
2021/12/02 10:18:42;;;;;;;0.65;0.28;;;;;;;;;;1859292;75;26273;-35
2021/12/02 10:21:18;;;;;;;0.75;0.20;;;;;;;;;;1840225;75;26873;-35
2021/12/02 10:23:46;;;;;;;0.20;0.20;;;;;;;;;;1847131;75;26322;-38
2021/12/02 10:26:13;;;;;;;2.00;0.20;;;;;;;;;;1847842;75;28219;-35
2021/12/02 10:28:44;;;;;;;0.23;0.23;;;;;;;;;;1849905;75;26410;-39
2021/12/02 10:31:12;;;;;;;0.28;0.28;;;;;;;;;;1857029;77;26281;-40
2021/12/02 10:33:41;;;;;;;0.20;0.20;;;;;;;;;;1854112;76;26263;-39
2021/12/02 10:36:25;;;;;;;0.30;0.30;;;;;;;;;;1839291;77;28818;-38
2021/12/02 10:38:54;;;;;;;0.30;0.30;;;;;;;;;;1840909;77;26689;-34
2021/12/02 10:41:25;;;;;;;0.82;0.20;;;;;;;;;;1845341;75;26333;-39
2021/12/02 10:44:03;;;;;;;0.20;0.20;;;;;;;;;;1851183;77;26221;-41
2021/12/02 10:46:30;;;;;;;0.20;0.20;;;;;;;;;;1857015;77;26824;-44
2021/12/02 10:48:58;;;;;;;0.20;0.20;;;;;;;;;;1854755;75;26256;-38
2021/12/02 10:51:29;;;;;;;0.20;0.20;;;;;;;;;;1858071;75;26262;-35
2021/12/02 10:54:00;;;;;;;0.40;0.23;;;;;;;;;;1843089;76;26205;-35
2021/12/02 10:56:29;;;;;;;1.90;0.23;;;;;;;;;;1848008;75;26268;-33
2021/12/02 10:58:56;;;;;;;0.20;0.20;;;;;;;;;;1847697;76;26273;-34
2021/12/02 11:01:40;;;;;;;2.50;0.30;;;;;;;;;;1860583;76;26370;-34
2021/12/02 11:04:07;;;;;;;0.20;0.20;;;;;;;;;;1861926;77;26355;-34
2021/12/02 11:06:41;;;;;;;0.20;0.20;;;;;;;;;;1851257;77;26287;-35
2021/12/02 11:09:24;;;;;;;0.30;0.30;;;;;;;;;;1857667;75;26311;-35
2021/12/02 11:12:10;;;;;;;0.20;0.20;;;;;;;;;;1853850;75;26273;-36
2021/12/02 11:14:39;;;;;;;1.65;0.20;;;;;;;;;;1851066;75;26665;-31
2021/12/02 11:17:07;;;;;;;0.20;0.20;;;;;;;;;;1852780;75;26688;-32
2021/12/02 11:19:35;;;;;;;0.20;0.20;;;;;;;;;;1861604;75;26249;-32
2021/12/02 11:22:10;;;;;;;0.20;0.20;;;;;;;;;;1864113;75;26271;-32
2021/12/02 11:24:39;;;;;;;0.10;0.10;;;;;;;;;;1855715;77;26551;-36
2021/12/02 11:27:11;;;;;;;0.17;0.17;;;;;;;;;;1863969;75;26701;-36
2021/12/02 11:29:56;;;;;;;0.20;0.20;;;;;;;;;;1844316;76;26297;-37
2021/12/02 11:32:28;;;;;;;2.83;0.60;;;;;;;;;;1844089;76;26258;-37
2021/12/02 11:34:59;;;;;;;0.33;0.33;;;;;;;;;;1843344;76;26264;-35
2021/12/02 11:37:27;;;;;;;0.30;0.20;;;;;;;;;;1835477;77;28620;-32
2021/12/02 11:39:56;;;;;;;0.20;0.20;;;;;;;;;;1846100;76;26892;-30
2021/12/02 11:42:23;;;;;;;0.15;0.15;;;;;;;;;;1844108;77;27400;-31
2021/12/02 11:44:50;;;;;;;0.20;0.20;;;;;;;;;;1839717;76;26264;-35
2021/12/02 11:47:18;;;;;;;0.30;0.30;;;;;;;;;;1832170;76;26273;-33
2021/12/02 11:49:45;;;;;;;0.30;0.30;;;;;;;;;;1848488;76;26740;-35
2021/12/02 11:52:13;;;;;;;0.20;0.20;;;;;;;;;;1843239;77;26243;-37
2021/12/02 11:54:40;;;;;;;0.35;0.35;;;;;;;;;;1845619;76;26647;-37
2021/12/02 11:57:08;;;;;;;0.30;0.30;;;;;;;;;;1845038;77;26190;-36
2021/12/02 11:59:35;;;;;;;0.20;0.20;;;;;;;;;;1842499;76;26272;-36
2021/12/02 12:02:03;;;;;;;0.60;0.20;;;;;;;;;;1846828;76;26295;-37
2021/12/02 12:04:31;;;;;;;0.25;0.25;;;;;;;;;;1839166;76;27014;-37
2021/12/02 12:07:15;;;;;;;0.50;0.50;;;;;;;;;;1843793;76;26289;-36
2021/12/02 12:09:42;;;;;;;1.22;0.33;;;;;;;;;;1843308;76;26206;-36
2021/12/02 12:12:10;;;;;;;0.40;0.40;;;;;;;;;;1835864;76;26266;-36
2021/12/02 12:14:42;;;;;;;0.30;0.30;;;;;;;;;;1844728;76;26226;-36
2021/12/02 12:17:13;;;;;;;0.30;0.30;;;;;;;;;;1838427;77;26246;-36
2021/12/02 12:19:45;;;;;;;0.40;0.40;;;;;;;;;;1844772;76;26316;-36
2021/12/02 12:22:14;;;;;;;0.93;0.53;;;;;;;;;;1847074;77;26741;-36
2021/12/02 12:24:43;;;;;;;6.60;0.90;;;;;;;;;;1844762;77;26536;-36
2021/12/02 12:27:12;;;;;;;0.72;0.70;;;;;;;;;;1845771;76;26604;-36
2021/12/02 12:29:39;;;;;;;4.97;0.47;;;;;;;;;;1843968;75;26313;-36
2021/12/02 12:32:13;;;;;;;3.50;0.62;;;;;;;;;;1858567;77;26334;-38
2021/12/02 12:34:43;;;;;;;0.55;0.40;;;;;;;;;;1846568;75;26320;-36
2021/12/02 12:37:28;;;;;;;1.35;0.45;;;;;;;;;;1852971;75;26312;-36
2021/12/02 12:40:07;;;;;;;3.87;0.70;;;;;;;;;;1848698;77;26393;-36
2021/12/02 12:42:35;;;;;;;1.30;0.57;;;;;;;;;;1847876;75;26245;-36
2021/12/02 12:45:04;;;;;;;0.72;0.47;;;;;;;;;;1851322;76;27143;-36
2021/12/02 12:47:51;;;;;;;0.53;0.53;;;;;;;;;;1856835;77;26280;-36
2021/12/02 12:50:22;;;;;;;0.40;0.40;;;;;;;;;;1855953;75;26350;-37
2021/12/02 12:53:07;;;;;;;0.40;0.40;;;;;;;;;;1833356;75;26338;-36
2021/12/02 12:55:39;;;;;;;0.40;0.40;;;;;;;;;;1857509;75;26871;-36
2021/12/02 12:58:07;;;;;;;0.65;0.40;;;;;;;;;;1861726;75;26590;-36
2021/12/02 13:00:45;;;;;;;0.60;0.60;;;;;;;;;;1851772;77;26757;-36
2021/12/02 13:03:20;;;;;;;0.53;0.53;;;;;;;;;;1845423;75;26339;-37
2021/12/02 13:05:53;;;;;;;0.60;0.60;;;;;;;;;;1860730;76;26346;-36
2021/12/02 13:08:24;;;;;;;0.50;0.50;;;;;;;;;;1854749;77;26801;-36
2021/12/02 13:10:55;;;;;;;1.27;0.55;;;;;;;;;;1854852;75;26346;-36
2021/12/02 13:13:28;;;;;;;0.80;0.57;;;;;;;;;;1856868;75;26342;-37
2021/12/02 13:15:56;;;;;;;0.30;0.30;;;;;;;;;;1857690;75;26233;-36
2021/12/02 13:18:31;;;;;;;0.40;0.40;;;;;;;;;;1856544;76;26323;-36
2021/12/02 13:21:00;;;;;;;0.20;0.20;;;;;;;;;;1848736;75;26315;-36
2021/12/02 13:23:31;;;;;;;1.15;0.33;;;;;;;;;;1853562;75;26686;-37
2021/12/02 13:26:01;;;;;;;0.42;0.42;;;;;;;;;;1852119;75;26374;-36
2021/12/02 13:28:35;;;;;;;0.33;0.33;;;;;;;;;;1861682;75;26369;-37
2021/12/02 13:31:06;;;;;;;0.50;0.50;;;;;;;;;;1860502;75;27425;-36
2021/12/02 13:33:35;;;;;;;0.50;0.50;;;;;;;;;;1862624;75;26245;-36
2021/12/02 13:36:03;;;;;;;0.37;0.37;;;;;;;;;;1836556;76;26386;-38
2021/12/02 13:38:30;;;;;;;0.42;0.40;;;;;;;;;;1849275;75;26270;-36
2021/12/02 13:40:59;;;;;;;0.40;0.40;;;;;;;;;;1855313;76;26338;-37
2021/12/02 13:43:26;;;;;;;0.40;0.40;;;;;;;;;;1852945;75;26701;-37
2021/12/02 13:45:55;;;;;;;0.30;0.30;;;;;;;;;;1852794;77;26257;-37
2021/12/02 13:48:22;;;;;;;0.30;0.30;;;;;;;;;;1851892;75;26205;-36
2021/12/02 13:50:51;;;;;;;0.40;0.40;;;;;;;;;;1859323;75;26580;-36
2021/12/02 13:53:18;;;;;;;0.30;0.30;;;;;;;;;;1859243;77;26213;-36
2021/12/02 13:55:53;;;;;;;0.40;0.40;;;;;;;;;;1857207;75;26346;-36
2021/12/02 13:58:29;;;;;;;0.30;0.30;;;;;;;;;;1859446;76;26382;-36
2021/12/02 14:00:48;;;;;;;1.87;0.40;;;;;;;;;;1857603;76;26386;-36
2021/12/02 14:03:17;;;;;;;0.40;0.40;;;;;;;;;;1846931;75;26326;-37
2021/12/02 14:05:46;;;;;;;0.40;0.40;;;;;;;;;;1859541;77;26344;-36
2021/12/02 14:08:14;;;;;;;0.30;0.30;;;;;;;;;;1851992;76;26300;-36
2021/12/02 14:10:42;;;;;;;0.30;0.30;;;;;;;;;;1855329;77;26201;-36
2021/12/02 14:13:11;;;;;;;0.40;0.40;;;;;;;;;;1860187;75;26339;-36
2021/12/02 14:15:40;;;;;;;0.20;0.20;;;;;;;;;;1861473;77;26812;-36
2021/12/02 14:18:13;;;;;;;0.40;0.40;;;;;;;;;;1845478;75;26269;-36
2021/12/02 14:20:42;;;;;;;0.40;0.40;;;;;;;;;;1849116;77;26351;-37
2021/12/02 14:23:14;;;;;;;0.37;0.37;;;;;;;;;;1853640;77;26323;-36
2021/12/02 14:25:43;;;;;;;0.33;0.33;;;;;;;;;;1848918;75;25896;-36
2021/12/02 14:28:12;;;;;;;0.35;0.35;;;;;;;;;;1862109;76;26322;-36
2021/12/02 14:30:40;;;;;;;0.30;0.30;;;;;;;;;;1862284;75;26292;-37
2021/12/02 14:33:08;;;;;;;0.23;0.23;;;;;;;;;;1862934;75;26348;-36
2021/12/02 14:35:46;;;;;;;0.37;0.37;;;;;;;;;;1860885;76;26272;-37
2021/12/02 14:38:24;;;;;;;0.33;0.33;;;;;;;;;;1852312;77;26342;-36
2021/12/02 14:40:56;;;;;;;0.17;0.17;;;;;;;;;;1855994;75;26280;-38
2021/12/02 14:43:22;;;;;;;0.35;0.35;;;;;;;;;;1860350;76;26758;-36
2021/12/02 14:45:52;;;;;;;0.45;0.40;;;;;;;;;;1850703;77;26274;-37
2021/12/02 14:48:20;;;;;;;0.20;0.20;;;;;;;;;;1856784;75;26311;-37
2021/12/02 14:50:58;;;;;;;0.78;0.30;;;;;;;;;;1853152;75;26253;-36
2021/12/02 14:53:27;;;;;;;0.40;0.40;;;;;;;;;;1843440;75;26350;-36
2021/12/02 14:55:55;;;;;;;1.42;0.40;;;;;;;;;;1851812;75;26741;-36
2021/12/02 14:58:26;;;;;;;0.50;0.50;;;;;;;;;;1849419;75;26377;-36
2021/12/02 15:00:52;;;;;;;0.40;0.40;;;;;;;;;;1851218;75;26356;-37
2021/12/02 15:03:21;;;;;;;0.90;0.47;;;;;;;;;;1850360;75;26297;-36
2021/12/02 15:05:48;;;;;;;0.40;0.33;;;;;;;;;;1848213;77;26623;-36